Cairo International Airport


Codes: HECA/CAI
Name: Cairo International Airport
City: Cairo
Country: Egypt
Elevation: 382 ft.
Wikipedia:

Photos at Cairo International Airport


   Photos courtesy of SpottingLog. You can add your own sightings and photos by signing up for a free trial today.



SU-GDV, 19-Aug-2023
© Mark Lovett

SU-GER, 19-Aug-2023
© Mark Lovett


Weather at Cairo International Airport


Time (UTC)DescriptionTempratureWindCloud coverageVisibilityPressureHumidity
15-Apr-2024 18:00Few Clouds26°C16 mph, NE20%10000m1014hPa29%
15-Apr-2024 21:00Clear Sky23°C9 mph, NE0%10000m1015hPa43%
16-Apr-2024 00:00Clear Sky19°C9 mph, NE1%10000m1015hPa58%
16-Apr-2024 03:00Clear Sky18°C11 mph, NE4%10000m1015hPa63%
16-Apr-2024 06:00Scattered Clouds21°C16 mph, NE42%10000m1016hPa46%
16-Apr-2024 09:00Overcast Clouds28°C16 mph, NE98%10000m1015hPa27%
16-Apr-2024 12:00Overcast Clouds31°C11 mph, NE99%10000m1012hPa19%
16-Apr-2024 15:00Overcast Clouds31°C13 mph, NE100%10000m1011hPa18%
16-Apr-2024 18:00Broken Clouds24°C18 mph, NE66%10000m1012hPa48%
16-Apr-2024 21:00Clear Sky22°C9 mph, E1%10000m1012hPa51%
17-Apr-2024 00:00Clear Sky23°C7 mph, E1%10000m1010hPa33%
17-Apr-2024 03:00Clear Sky23°C9 mph, SE0%10000m1009hPa24%
17-Apr-2024 06:00Clear Sky28°C9 mph, S0%10000m1009hPa17%
17-Apr-2024 09:00Clear Sky33°C16 mph, SW0%10000m1008hPa12%
17-Apr-2024 12:00Clear Sky37°C16 mph, SW0%10000m1006hPa7%
17-Apr-2024 15:00Clear Sky36°C16 mph, SW0%10000m1005hPa7%
17-Apr-2024 18:00Clear Sky31°C9 mph, S0%10000m1007hPa11%
17-Apr-2024 21:00Overcast Clouds30°C13 mph, SW86%10000m1007hPa14%
18-Apr-2024 00:00Scattered Clouds23°C7 mph, NW47%10000m1009hPa36%
18-Apr-2024 03:00Clear Sky21°C9 mph, NW0%10000m1011hPa45%
18-Apr-2024 06:00Clear Sky22°C9 mph, NW0%10000m1013hPa51%
18-Apr-2024 09:00Clear Sky29°C9 mph, NW0%10000m1013hPa29%
18-Apr-2024 12:00Clear Sky32°C7 mph, NW0%10000m1011hPa19%
18-Apr-2024 15:00Clear Sky33°C16 mph, NW0%10000m1010hPa18%
18-Apr-2024 18:00Clear Sky24°C13 mph, N0%10000m1014hPa47%
18-Apr-2024 21:00Clear Sky20°C11 mph, NE0%10000m1015hPa69%
19-Apr-2024 00:00Clear Sky19°C7 mph, NE0%10000m1014hPa75%
19-Apr-2024 03:00Clear Sky17°C7 mph, NE0%10000m1014hPa81%
19-Apr-2024 06:00Clear Sky20°C7 mph, N2%10000m1015hPa60%
19-Apr-2024 09:00Clear Sky26°C9 mph, N1%10000m1014hPa27%
19-Apr-2024 12:00Clear Sky31°C11 mph, N0%10000m1011hPa18%
19-Apr-2024 15:00Clear Sky30°C20 mph, N0%10000m1010hPa17%
19-Apr-2024 18:00Clear Sky21°C16 mph, N0%10000m1013hPa48%
19-Apr-2024 21:00Clear Sky18°C11 mph, NE3%10000m1013hPa70%
20-Apr-2024 00:00Few Clouds16°C9 mph, NE16%10000m1012hPa81%
20-Apr-2024 03:00Clear Sky15°C9 mph, NE3%10000m1012hPa87%
20-Apr-2024 06:00Clear Sky19°C13 mph, NE7%10000m1011hPa60%
20-Apr-2024 09:00Clear Sky28°C13 mph, NE3%10000m1011hPa23%
20-Apr-2024 12:00Scattered Clouds32°C18 mph, NE35%10000m1008hPa14%
20-Apr-2024 15:00Scattered Clouds30°C20 mph, NE38%10000m1009hPa18%